Crawley, West Virginia
Current Conditions -  °F | °C
As of 5:55 AM on Wednesday 22 Oct 2014 (Local Time) from KLWB Reporting Station
Overcast Overcast  
Wind Chill: 42°   Ceiling: 2400
Heat Index: 45°   Visibility: 10mi
Dew Point: 38°   Wind: 6mph
Humidity: 75%   Direction: 310°NW
Pressure: 30.03"   Gusts: NA
Location:  37.93°N, 80.65°W
Report Text: KLWB 220955Z AUTO 31005KT 10SM BKN024 OVC030 07/03 A3003 RMK AO2 T00720031
Loading
Personal Weather Stations






























Interactive Weather Map
Tropical Storm Tracking
New forecast layout! Learn more

10-Day Weather Forecast

Advertisements
Track Severe Weather on mobile